Time;durP1;ratioP1;P1;durP2;ratioP2;P2;SDS_P1;SDS_P2;PMS_P1;PMS_P2;Temp;Humidity;BMP_temperature;BMP_pressure;BME280_temperature;BME280_humidity;BME280_pressure;Samples;Min_cycle;Max_cycle;Signal;HPM_P1;HPM_P2
2023/02/23 00:00:26;;;;;;;;;;;;;;;8.60;94.16;96124.31;4996611;28;19968;-75
2023/02/23 00:02:54;;;;;;;;;;;;;;;8.58;94.40;96123.75;4986203;28;19943;-74
2023/02/23 00:05:20;;;;;;;;;;;;;;;8.58;94.68;96118.50;4996410;28;20412;-75
2023/02/23 00:07:46;;;;;;;;;;;;;;;8.57;94.36;96116.94;4996423;28;19950;-74
2023/02/23 00:10:13;;;;;;;;;;;;;;;8.57;94.92;96116.94;4996106;28;19979;-74
2023/02/23 00:12:43;;;;;;;;;;;;;;;8.56;94.82;96117.94;4996742;28;19955;-75
2023/02/23 00:15:10;;;;;;;;;;;;;;;8.56;95.00;96117.94;4996058;28;19948;-74
2023/02/23 00:17:36;;;;;;;;;;;;;;;8.54;95.26;96107.69;4996275;28;19952;-75
2023/02/23 00:20:07;;;;;;;;;;;;;;;8.53;95.24;96111.31;4978508;28;19961;-74
2023/02/23 00:22:33;;;;;;;;;;;;;;;8.54;95.66;96107.69;4996147;28;19948;-74
2023/02/23 00:24:59;;;;;;;;;;;;;;;8.53;95.50;96103.47;4995725;28;20298;-74
2023/02/23 00:27:26;;;;;;;;;;;;;;;8.52;95.30;96109.72;4996231;28;20346;-75
2023/02/23 00:29:52;;;;;;;;;;;;;;;8.51;96.16;96102.88;4995807;28;19951;-75
2023/02/23 00:32:20;;;;;;;;;;;;;;;8.49;96.22;96102.31;4995985;28;19955;-74
2023/02/23 00:34:50;;;;;;;;;;;;;;;8.50;96.59;96103.09;4995736;28;19950;-74
2023/02/23 00:37:17;;;;;;;;;;;;;;;8.49;96.64;96104.13;4996423;28;19966;-74
2023/02/23 00:39:43;;;;;;;;;;;;;;;8.48;96.77;96105.13;4995579;28;19970;-74
2023/02/23 00:42:09;;;;;;;;;;;;;;;8.48;97.14;96108.56;4995638;28;19963;-74
2023/02/23 00:44:35;;;;;;;;;;;;;;;8.46;96.65;96102.75;4995791;28;19960;-74
2023/02/23 00:47:01;;;;;;;;;;;;;;;8.45;97.19;96110.78;4995441;28;19956;-74
2023/02/23 00:49:27;;;;;;;;;;;;;;;8.44;96.37;96103.94;4995507;28;19947;-74
2023/02/23 00:51:53;;;;;;;;;;;;;;;8.41;97.86;96118.22;4977922;28;20073;-74
2023/02/23 00:54:20;;;;;;;;;;;;;;;8.39;97.06;96108.97;4995547;28;19995;-75
2023/02/23 00:56:46;;;;;;;;;;;;;;;8.37;97.23;96103.16;4995474;28;19944;-75
2023/02/23 00:59:12;;;;;;;;;;;;;;;8.35;96.72;96108.59;4995344;28;20119;-74
2023/02/23 01:01:40;;;;;;;;;;;;;;;8.36;97.66;96114.63;4978263;28;19950;-76
2023/02/23 01:04:06;;;;;;;;;;;;;;;8.33;97.20;96100.97;4995323;28;20316;-75
2023/02/23 01:06:33;;;;;;;;;;;;;;;8.32;97.86;96096.78;4995194;28;19948;-74
2023/02/23 01:09:04;;;;;;;;;;;;;;;8.32;97.02;96101.19;4995294;28;19956;-75
2023/02/23 01:11:30;;;;;;;;;;;;;;;8.32;97.46;96102.00;4995517;28;19949;-74
2023/02/23 01:13:56;;;;;;;;;;;;;;;8.32;98.12;96099.38;4995155;28;19990;-76
2023/02/23 01:16:27;;;;;;;;;;;;;;;8.31;97.50;96097.75;4994902;28;19951;-75
2023/02/23 01:18:54;;;;;;;;;;;;;;;8.32;97.77;96103.81;4995587;28;19981;-74
2023/02/23 01:21:21;;;;;;;;;;;;;;;8.31;97.94;96099.59;4977338;28;19969;-74
2023/02/23 01:23:48;;;;;;;;;;;;;;;8.32;98.00;96101.19;4995063;28;19996;-75
2023/02/23 01:26:14;;;;;;;;;;;;;;;8.31;97.90;96095.16;4995163;28;19963;-74
2023/02/23 01:28:40;;;;;;;;;;;;;;;8.30;97.92;96100.59;4994781;28;20416;-74
2023/02/23 01:31:09;;;;;;;;;;;;;;;8.30;98.10;96095.38;4994819;28;19949;-74
2023/02/23 01:33:35;;;;;;;;;;;;;;;8.28;98.43;96092.19;4994794;28;19955;-74
2023/02/23 01:36:01;;;;;;;;;;;;;;;8.29;98.54;96099.00;4994104;28;20403;-74
2023/02/23 01:38:27;;;;;;;;;;;;;;;8.26;97.95;96092.38;4994509;28;20440;-75
2023/02/23 01:40:52;;;;;;;;;;;;;;;8.27;99.61;96088.78;4994473;28;20325;-75
2023/02/23 01:43:24;;;;;;;;;;;;;;;8.23;99.50;96092.81;4994488;28;19959;-75
2023/02/23 01:45:53;;;;;;;;;;;;;;;8.21;98.47;96089.63;4994509;28;19952;-74
2023/02/23 01:48:21;;;;;;;;;;;;;;;8.21;99.17;96091.41;4994984;28;19952;-74
2023/02/23 01:50:51;;;;;;;;;;;;;;;8.19;98.54;96083.81;4994833;28;19947;-74
2023/02/23 01:53:20;;;;;;;;;;;;;;;8.20;98.61;96087.22;4994316;28;19945;-74
2023/02/23 01:55:53;;;;;;;;;;;;;;;8.18;99.05;96091.84;4993674;28;20406;-74
2023/02/23 01:58:21;;;;;;;;;;;;;;;8.17;98.79;96085.00;4994573;28;20412;-74
2023/02/23 02:00:49;;;;;;;;;;;;;;;8.16;99.08;96092.03;4994436;28;19969;-75
2023/02/23 02:03:25;;;;;;;;;;;;;;;8.16;98.87;96088.66;4994482;28;19951;-74
2023/02/23 02:05:52;;;;;;;;;;;;;;;8.13;99.00;96085.44;4994236;28;19948;-74
2023/02/23 02:08:18;;;;;;;;;;;;;;;8.14;98.48;96083.63;4994317;28;19942;-74
2023/02/23 02:10:47;;;;;;;;;;;;;;;8.13;99.26;96090.66;4994214;28;19964;-74
2023/02/23 02:13:17;;;;;;;;;;;;;;;8.13;99.14;96089.88;4994453;28;20313;-74
2023/02/23 02:16:04;;;;;;;;;;;;;;;8.12;99.61;96083.81;4993334;28;19949;-74
2023/02/23 02:18:40;;;;;;;;;;;;;;;8.12;100.00;96075.19;4993497;28;19947;-73
2023/02/23 02:21:24;;;;;;;;;;;;;;;8.09;100.00;96083.47;4994081;28;20306;-74
2023/02/23 02:23:55;;;;;;;;;;;;;;;8.07;99.82;96077.66;4994086;28;19949;-74
2023/02/23 02:26:40;;;;;;;;;;;;;;;8.05;99.99;96075.25;4994492;28;19948;-74
2023/02/23 02:29:14;;;;;;;;;;;;;;;8.06;100.00;96076.84;4994162;28;19945;-74
2023/02/23 02:31:57;;;;;;;;;;;;;;;8.07;99.83;96069.81;4976613;28;20002;-74
2023/02/23 02:34:48;;;;;;;;;;;;;;;8.06;100.00;96076.84;4994492;28;19944;-74
2023/02/23 02:37:26;;;;;;;;;;;;;;;8.06;99.94;96069.03;4994040;28;19943;-75
2023/02/23 02:39:52;;;;;;;;;;;;;;;8.06;100.00;96071.63;4993628;28;19971;-75
2023/02/23 02:42:28;;;;;;;;;;;;;;;8.07;100.00;96068.00;4993979;28;19973;-74
2023/02/23 02:45:20;;;;;;;;;;;;;;;8.08;100.00;96068.78;4993847;28;20424;-74
2023/02/23 02:47:47;;;;;;;;;;;;;;;8.06;100.00;96071.63;4994752;28;19942;-74
2023/02/23 02:50:19;;;;;;;;;;;;;;;8.07;100.00;96068.00;4997869;28;19947;-74
2023/02/23 02:52:53;;;;;;;;;;;;;;;8.07;100.00;96072.44;4997602;28;20320;-74
2023/02/23 02:55:25;;;;;;;;;;;;;;;8.06;100.00;96065.59;4997862;28;20336;-75
2023/02/23 02:57:52;;;;;;;;;;;;;;;8.05;100.00;96059.56;4997791;28;19954;-74
2023/02/23 04:18:54;;;;;;;;;;;;;;;7.91;100.00;96074.50;4996250;28;19954;-74
2023/02/23 04:21:20;;;;;;;;;;;;;;;7.90;100.00;96072.94;4996232;28;20013;-74
2023/02/23 04:23:46;;;;;;;;;;;;;;;7.88;100.00;96072.34;4996177;28;20008;-74
2023/02/23 04:26:12;;;;;;;;;;;;;;;7.86;100.00;96078.78;4995891;28;19947;-74
2023/02/23 04:28:38;;;;;;;;;;;;;;;7.84;100.00;96068.53;4996515;28;19955;-74
2023/02/23 04:31:04;;;;;;;;;;;;;;;7.84;100.00;96070.34;4995849;28;20003;-74
2023/02/23 04:33:30;;;;;;;;;;;;;;;7.83;100.00;96076.56;4995831;28;19948;-74
2023/02/23 04:35:55;;;;;;;;;;;;;;;7.83;100.00;96076.56;4995701;28;19953;-74
2023/02/23 04:38:22;;;;;;;;;;;;;;;7.83;100.00;96077.41;4995852;28;19954;-74
2023/02/23 04:40:48;;;;;;;;;;;;;;;7.84;100.00;96080.81;4995302;28;19974;-74
2023/02/23 04:43:14;;;;;;;;;;;;;;;7.84;100.00;96084.22;4978792;28;20329;-74
2023/02/23 04:45:40;;;;;;;;;;;;;;;7.83;100.00;96082.63;4996035;28;19953;-74
2023/02/23 04:48:06;;;;;;;;;;;;;;;7.82;100.00;96081.00;4995470;28;20399;-74
2023/02/23 04:50:33;;;;;;;;;;;;;;;7.83;100.00;96084.41;4995467;28;20414;-74
2023/02/23 04:52:58;;;;;;;;;;;;;;;7.82;100.00;96081.00;4995465;28;19946;-74
2023/02/23 04:55:24;;;;;;;;;;;;;;;7.82;100.00;96082.81;4978409;28;19949;-74
2023/02/23 04:57:52;;;;;;;;;;;;;;;7.81;100.00;96083.81;4995401;28;20395;-74
2023/02/23 05:00:18;;;;;;;;;;;;;;;7.82;100.00;96080.22;4995714;28;19964;-74
2023/02/23 05:02:44;;;;;;;;;;;;;;;7.82;100.00;96082.81;4995203;28;19948;-74
2023/02/23 05:05:11;;;;;;;;;;;;;;;7.81;100.00;96084.63;4995292;28;19948;-74
2023/02/23 05:07:37;;;;;;;;;;;;;;;7.82;100.00;96090.66;4978114;28;19949;-75
2023/02/23 05:10:03;;;;;;;;;;;;;;;7.80;100.00;96082.22;4995008;28;19955;-74
2023/02/23 05:12:29;;;;;;;;;;;;;;;7.80;100.00;96085.63;4995661;28;19961;-74
2023/02/23 05:14:55;;;;;;;;;;;;;;;7.80;100.00;96084.84;4995014;28;19959;-74
2023/02/23 05:17:21;;;;;;;;;;;;;;;7.78;100.00;96079.81;4977328;28;20001;-75
2023/02/23 05:19:47;;;;;;;;;;;;;;;7.77;100.00;96078.22;4995175;28;20043;-74
2023/02/23 05:22:13;;;;;;;;;;;;;;;7.76;100.00;96079.22;4994843;28;20404;-75
2023/02/23 05:24:39;;;;;;;;;;;;;;;7.75;100.00;96079.44;4994777;28;20320;-74
2023/02/23 05:27:06;;;;;;;;;;;;;;;7.73;100.00;96075.22;4995000;28;19947;-75
2023/02/23 05:29:31;;;;;;;;;;;;;;;7.73;100.00;96071.81;4977599;28;19946;-75
2023/02/23 05:31:57;;;;;;;;;;;;;;;7.71;100.00;96077.25;4994708;28;20453;-74
2023/02/23 05:34:23;;;;;;;;;;;;;;;7.70;100.00;96070.41;4994607;28;20394;-75
2023/02/23 05:36:49;;;;;;;;;;;;;;;7.71;100.00;96073.84;4977210;28;19948;-74
2023/02/23 05:39:15;;;;;;;;;;;;;;;7.70;100.00;96078.25;4994513;28;19947;-74
2023/02/23 05:41:41;;;;;;;;;;;;;;;7.70;100.00;96075.63;4994784;28;20351;-75
2023/02/23 05:44:07;;;;;;;;;;;;;;;7.69;100.00;96071.44;4994462;28;19992;-73
2023/02/23 05:46:32;;;;;;;;;;;;;;;7.69;100.00;96079.25;4994690;28;19954;-74
2023/02/23 05:48:59;;;;;;;;;;;;;;;7.68;100.00;96069.03;4977352;28;19955;-75
2023/02/23 05:51:26;;;;;;;;;;;;;;;7.68;100.00;96080.25;4994369;28;19943;-74
2023/02/23 05:53:52;;;;;;;;;;;;;;;7.68;100.00;96080.25;4977244;28;19971;-74
2023/02/23 05:56:19;;;;;;;;;;;;;;;7.68;100.00;96088.09;4977530;28;19955;-74
2023/02/23 05:58:49;;;;;;;;;;;;;;;7.68;100.00;96082.06;4994406;28;19946;-74
2023/02/23 06:01:16;;;;;;;;;;;;;;;7.67;100.00;96086.50;4994447;28;19973;-74
2023/02/23 06:03:42;;;;;;;;;;;;;;;7.67;100.00;96085.72;4993882;28;19955;-74
2023/02/23 06:06:09;;;;;;;;;;;;;;;7.66;100.00;96089.31;4994221;28;19953;-74
2023/02/23 06:08:34;;;;;;;;;;;;;;;7.65;100.00;96085.13;4994150;28;19950;-74
2023/02/23 06:11:01;;;;;;;;;;;;;;;7.64;100.00;96088.72;4994572;28;20374;-74
2023/02/23 06:13:27;;;;;;;;;;;;;;;7.61;100.00;96083.91;4994241;28;20319;-75
2023/02/23 06:15:53;;;;;;;;;;;;;;;7.59;100.00;96088.56;4960804;28;19951;-74
2023/02/23 06:18:21;;;;;;;;;;;;;;;7.57;100.00;96088.75;4994175;28;19947;-75
2023/02/23 06:20:46;;;;;;;;;;;;;;;7.56;100.00;96089.78;4994377;28;19972;-74
2023/02/23 06:23:14;;;;;;;;;;;;;;;7.56;100.00;96083.72;4995563;28;20478;-74
2023/02/23 06:25:41;;;;;;;;;;;;;;;7.54;100.00;96089.19;4998603;28;19960;-75
2023/02/23 06:28:07;;;;;;;;;;;;;;;7.53;100.00;96090.16;4983009;28;20321;-74
2023/02/23 06:30:33;;;;;;;;;;;;;;;7.51;100.00;96090.38;4998155;28;19956;-74
2023/02/23 06:32:59;;;;;;;;;;;;;;;7.50;100.00;96094.00;4998060;28;19957;-75
2023/02/23 06:35:26;;;;;;;;;;;;;;;7.49;100.00;96092.38;4997876;28;19950;-74
2023/02/23 06:37:52;;;;;;;;;;;;;;;7.47;100.00;96102.22;4998742;28;19951;-73
2023/02/23 06:40:19;;;;;;;;;;;;;;;7.46;100.00;96116.28;4997905;28;19960;-74
2023/02/23 06:42:45;;;;;;;;;;;;;;;7.46;100.00;96108.47;4998314;28;20010;-74
2023/02/23 06:45:12;;;;;;;;;;;;;;;7.45;100.00;96113.88;5010437;28;19953;-74
2023/02/23 06:47:38;;;;;;;;;;;;;;;7.44;100.00;96115.69;4997932;28;19959;-74
2023/02/23 06:50:05;;;;;;;;;;;;;;;7.44;100.00;96120.91;4997043;28;19955;-74
2023/02/23 06:52:31;;;;;;;;;;;;;;;7.45;100.00;96126.94;4997780;28;19957;-75
2023/02/23 06:54:57;;;;;;;;;;;;;;;7.46;100.00;96128.53;4997728;28;19953;-74
2023/02/23 06:57:23;;;;;;;;;;;;;;;7.47;100.00;96132.75;4980325;28;19958;-74
2023/02/23 06:59:49;;;;;;;;;;;;;;;7.47;100.00;96133.53;4997608;28;19945;-74
2023/02/23 07:02:15;;;;;;;;;;;;;;;7.50;100.00;96137.56;4997389;28;19959;-75
2023/02/23 07:04:41;;;;;;;;;;;;;;;7.49;100.00;96134.13;4997999;28;20329;-74
2023/02/23 07:07:07;;;;;;;;;;;;;;;7.52;100.00;96143.38;4997394;28;19967;-74
2023/02/23 07:09:34;;;;;;;;;;;;;;;7.51;100.00;96141.75;4997350;28;19948;-77
2023/02/23 07:11:59;;;;;;;;;;;;;;;7.49;100.00;96143.78;4997420;28;19952;-74
2023/02/23 07:14:25;;;;;;;;;;;;;;;7.49;100.00;96151.59;4997514;28;20441;-75
2023/02/23 07:16:52;;;;;;;;;;;;;;;7.50;100.00;96148.78;4997307;28;19949;-75
2023/02/23 07:19:17;;;;;;;;;;;;;;;7.53;100.00;96150.19;4997640;28;19945;-74
2023/02/23 07:21:43;;;;;;;;;;;;;;;7.56;100.00;96155.00;4979819;28;20009;-74
2023/02/23 07:24:09;;;;;;;;;;;;;;;7.59;100.00;96149.38;4979926;28;19960;-74
2023/02/23 07:26:35;;;;;;;;;;;;;;;7.59;100.00;96146.75;4979812;28;20010;-74
2023/02/23 07:29:02;;;;;;;;;;;;;;;7.60;100.00;96150.16;4997239;28;19953;-74
2023/02/23 07:31:27;;;;;;;;;;;;;;;7.61;100.00;96146.56;4996909;28;20319;-74
2023/02/23 07:33:53;;;;;;;;;;;;;;;7.66;100.00;96154.56;4978985;28;20038;-74
2023/02/23 07:36:20;;;;;;;;;;;;;;;7.69;100.00;96154.16;4996504;28;19951;-74
2023/02/23 07:38:46;;;;;;;;;;;;;;;7.75;100.00;96148.13;4997133;28;19951;-74
2023/02/23 07:41:12;;;;;;;;;;;;;;;7.78;100.00;96144.28;4979051;28;19971;-75
2023/02/23 07:43:38;;;;;;;;;;;;;;;7.80;100.00;96142.25;4996937;28;20043;-74
2023/02/23 07:46:04;;;;;;;;;;;;;;;7.84;100.00;96141.63;4996604;28;20428;-74
2023/02/23 07:48:30;;;;;;;;;;;;;;;7.89;100.00;96144.41;4996629;28;19986;-76
2023/02/23 07:50:56;;;;;;;;;;;;;;;7.95;100.00;96149.81;4979845;28;19954;-74
2023/02/23 07:53:22;;;;;;;;;;;;;;;7.98;100.00;96145.00;4996505;28;20589;-74
2023/02/23 07:55:54;;;;;;;;;;;;;;;8.01;100.00;96143.78;4996982;28;19961;-74
2023/02/23 07:58:20;;;;;;;;;;;;;;;8.04;100.00;96157.22;4979210;28;19948;-75
2023/02/23 08:00:46;;;;;;;;;;;;;;;8.05;100.00;96150.97;4996935;28;19971;-74
2023/02/23 08:03:12;;;;;;;;;;;;;;;8.09;100.00;96153.97;4996366;28;19986;-74
2023/02/23 08:05:38;;;;;;;;;;;;;;;8.12;100.00;96158.78;4996541;28;19963;-74
2023/02/23 08:08:04;;;;;;;;;;;;;;;8.12;100.00;96158.78;4996461;28;19956;-74
2023/02/23 08:10:30;;;;;;;;;;;;;;;8.11;100.00;96157.97;4996660;28;19956;-74
2023/02/23 08:12:56;;;;;;;;;;;;;;;8.10;100.00;96155.56;4996448;28;19986;-74
2023/02/23 08:15:23;;;;;;;;;;;;;;;8.11;100.00;96157.97;4996399;28;19959;-75
2023/02/23 08:17:49;;;;;;;;;;;;;;;8.13;100.00;96161.19;4996148;28;19954;-75
2023/02/23 08:20:15;;;;;;;;;;;;;;;8.14;100.00;96154.94;4995887;28;19972;-74
2023/02/23 08:22:42;;;;;;;;;;;;;;;8.25;100.00;96161.34;4978942;28;20349;-74
2023/02/23 08:25:08;;;;;;;;;;;;;;;8.60;100.00;96149.69;4996336;28;20294;-75
2023/02/23 08:27:34;;;;;;;;;;;;;;;8.74;100.00;96151.19;4995854;28;19954;-75
2023/02/23 08:30:02;;;;;;;;;;;;;;;8.77;100.00;96152.56;4995218;28;19956;-74
2023/02/23 08:32:33;;;;;;;;;;;;;;;8.81;100.00;96151.13;4995843;28;19948;-75
2023/02/23 08:35:01;;;;;;;;;;;;;;;8.82;100.00;96156.16;4996018;28;19946;-75
2023/02/23 08:37:28;;;;;;;;;;;;;;;8.82;100.00;96155.31;4996010;28;19947;-75
2023/02/23 08:39:54;;;;;;;;;;;;;;;8.81;100.00;96154.53;4995826;28;19955;-75
2023/02/23 08:42:20;;;;;;;;;;;;;;;8.81;100.00;96156.34;4996210;28;19972;-75
2023/02/23 08:44:48;;;;;;;;;;;;;;;8.86;100.00;96159.13;4995937;28;19965;-74
2023/02/23 08:47:15;;;;;;;;;;;;;;;8.94;100.00;96157.06;4977566;28;19942;-74
2023/02/23 08:49:41;;;;;;;;;;;;;;;9.00;100.00;96159.81;4995643;28;19952;-75
2023/02/23 08:52:07;;;;;;;;;;;;;;;8.99;100.00;96156.41;4978203;28;19955;-75
2023/02/23 08:54:33;;;;;;;;;;;;;;;8.99;100.00;96168.66;4995731;28;19983;-76
2023/02/23 08:56:59;;;;;;;;;;;;;;;8.97;100.00;96168.91;4977917;28;19995;-75
2023/02/23 08:59:26;;;;;;;;;;;;;;;9.03;100.00;96165.44;4995989;28;19954;-75
2023/02/23 09:01:51;;;;;;;;;;;;;;;9.10;100.00;96165.38;4995426;28;19961;-75
2023/02/23 09:04:17;;;;;;;;;;;;;;;9.23;100.00;96174.91;4995363;28;19973;-74
2023/02/23 09:06:43;;;;;;;;;;;;;;;9.33;100.00;96170.78;4995302;28;19971;-75
2023/02/23 09:09:09;;;;;;;;;;;;;;;9.39;100.00;96160.47;4995228;28;20417;-75
2023/02/23 09:11:35;;;;;;;;;;;;;;;9.38;100.00;96171.94;4995745;28;20051;-74
2023/02/23 09:14:01;;;;;;;;;;;;;;;9.35;100.00;96168.75;4995186;28;20006;-75
2023/02/23 09:16:27;;;;;;;;;;;;;;;9.37;100.00;96163.28;4994982;28;20409;-74
2023/02/23 09:18:53;;;;;;;;;;;;;;;9.47;100.00;96170.63;4995085;28;19956;-74
2023/02/23 09:21:25;;;;;;;;;;;;;;;9.53;100.00;96164.53;4994972;28;20052;-75
2023/02/23 09:23:53;;;;;;;;;;;;;;;9.61;100.00;96163.44;4994997;28;19952;-74
2023/02/23 09:26:19;;;;;;;;;;;;;;;9.74;100.00;96169.34;4994768;28;20384;-75
2023/02/23 09:28:45;;;;;;;;;;;;;;;9.88;100.00;96156.88;4995382;28;19964;-74
2023/02/23 09:31:12;;;;;;;;;;;;;;;10.03;98.80;96143.41;4994244;28;19976;-74
2023/02/23 09:33:38;;;;;;;;;;;;;;;10.12;98.86;96149.94;4982193;28;20409;-74
2023/02/23 09:36:15;;;;;;;;;;;;;;;10.26;98.88;96150.53;4994967;28;19949;-74
2023/02/23 09:38:41;;;;;;;;;;;;;;;10.49;100.00;96155.09;4994620;28;19959;-75
2023/02/23 09:41:16;;;;;;;;;;;;;;;10.75;99.19;96150.47;4994631;28;19975;-74
2023/02/23 09:43:53;;;;;;;;;;;;;;;10.86;97.09;96143.66;5003080;28;19952;-74
2023/02/23 09:46:25;;;;;;;;;;;;;;;10.93;97.10;96141.72;4994856;28;19953;-76
2023/02/23 09:48:52;;;;;;;;;;;;;;;10.94;96.27;96135.44;4983925;28;19955;-74
2023/02/23 09:51:20;;;;;;;;;;;;;;;10.96;97.37;96146.50;4994413;28;19963;-74
2023/02/23 09:53:46;;;;;;;;;;;;;;;10.90;96.32;96145.59;4994335;28;20323;-74
2023/02/23 09:56:24;;;;;;;;;;;;;;;10.85;96.20;96142.84;4994471;28;19958;-75
2023/02/23 09:58:50;;;;;;;;;;;;;;;10.83;96.44;96150.13;4993644;28;19950;-74
2023/02/23 10:01:16;;;;;;;;;;;;;;;10.85;98.00;96163.03;4994599;28;20418;-74
2023/02/23 10:03:48;;;;;;;;;;;;;;;10.90;96.87;96158.72;4994370;28;20005;-74
2023/02/23 10:06:16;;;;;;;;;;;;;;;10.89;94.24;96145.81;4994441;28;19956;-74
2023/02/23 10:08:48;;;;;;;;;;;;;;;10.82;94.42;96148.56;4994524;28;19943;-75
2023/02/23 10:11:28;;;;;;;;;;;;;;;10.82;95.81;96160.88;4994702;28;19958;-74
2023/02/23 10:13:57;;;;;;;;;;;;;;;10.81;94.60;96144.31;4994265;28;19959;-74
2023/02/23 10:16:32;;;;;;;;;;;;;;;10.80;94.20;96147.97;4995511;28;19956;-74
2023/02/23 10:19:13;;;;;;;;;;;;;;;10.76;95.68;96160.75;4994117;28;19945;-74
2023/02/23 10:21:40;;;;;;;;;;;;;;;10.77;95.71;96158.91;4994269;28;19958;-74
2023/02/23 10:24:21;;;;;;;;;;;;;;;10.82;96.81;96164.28;4994133;28;19941;-74
2023/02/23 10:26:53;;;;;;;;;;;;;;;10.91;97.17;96154.25;4994576;28;19950;-74
2023/02/23 10:29:26;;;;;;;;;;;;;;;11.05;96.50;96150.41;4993998;28;19952;-74
2023/02/23 10:31:55;;;;;;;;;;;;;;;11.14;95.62;96149.00;4994205;28;19956;-74
2023/02/23 10:34:23;;;;;;;;;;;;;;;11.18;94.48;96144.13;4994244;28;19953;-74
2023/02/23 10:36:52;;;;;;;;;;;;;;;11.26;94.67;96137.72;4994162;28;19949;-74
2023/02/23 10:39:18;;;;;;;;;;;;;;;11.36;92.11;96127.47;4993832;28;19950;-77
2023/02/23 10:41:44;;;;;;;;;;;;;;;11.41;90.66;96121.50;4994104;28;19983;-74
2023/02/23 10:44:21;;;;;;;;;;;;;;;11.40;90.87;96123.31;4994540;28;19953;-73
2023/02/23 10:46:53;;;;;;;;;;;;;;;11.38;91.07;96130.63;4980400;28;19956;-75
2023/02/23 10:49:21;;;;;;;;;;;;;;;11.40;91.12;96125.16;4993840;28;19952;-74
2023/02/23 10:51:48;;;;;;;;;;;;;;;11.39;87.66;96095.47;4994526;28;20322;-74
2023/02/23 10:54:33;;;;;;;;;;;;;;;11.40;89.92;96118.06;4994103;28;19979;-74
2023/02/23 10:57:02;;;;;;;;;;;;;;;11.42;89.02;96100.25;4976394;28;20390;-74
2023/02/23 10:59:28;;;;;;;;;;;;;;;11.45;88.45;96109.50;4994067;28;19950;-74
2023/02/23 11:01:54;;;;;;;;;;;;;;;11.47;89.35;96115.34;4993702;28;19973;-73
2023/02/23 11:04:27;;;;;;;;;;;;;;;11.53;89.77;96111.78;4994425;28;19951;-74
2023/02/23 11:07:14;;;;;;;;;;;;;;;11.56;86.67;96095.56;4993790;28;19947;-74
2023/02/23 11:09:40;;;;;;;;;;;;;;;11.57;85.51;96079.56;4996048;28;20374;-74
2023/02/23 11:12:21;;;;;;;;;;;;;;;11.69;86.74;96094.47;4997541;28;19998;-74
2023/02/23 11:14:56;;;;;;;;;;;;;;;11.90;86.59;96091.25;4997685;28;19952;-74
2023/02/23 11:17:22;;;;;;;;;;;;;;;12.13;86.99;96089.53;4997507;28;19949;-74
2023/02/23 11:19:48;;;;;;;;;;;;;;;12.43;86.03;96073.50;4979786;28;20427;-74
2023/02/23 11:22:22;;;;;;;;;;;;;;;12.66;81.15;96038.34;4979890;28;20010;-74
2023/02/23 11:24:48;;;;;;;;;;;;;;;12.79;82.45;96059.06;4997907;28;19948;-74
2023/02/23 11:27:20;;;;;;;;;;;;;;;12.84;79.08;96018.88;4997380;28;19966;-74
2023/02/23 11:29:47;;;;;;;;;;;;;;;12.82;79.41;96031.47;4997312;28;19967;-74
2023/02/23 11:32:19;;;;;;;;;;;;;;;12.69;79.41;96040.50;4979795;28;19954;-74
2023/02/23 11:34:48;;;;;;;;;;;;;;;12.57;80.09;96034.53;4996942;28;19955;-74
2023/02/23 11:37:17;;;;;;;;;;;;;;;12.47;80.35;96037.00;4997000;28;19973;-75
2023/02/23 11:39:53;;;;;;;;;;;;;;;12.39;81.25;96040.84;4996942;28;19949;-74
2023/02/23 11:42:21;;;;;;;;;;;;;;;12.36;81.38;96047.34;4996493;28;19972;-74
2023/02/23 11:44:51;;;;;;;;;;;;;;;12.28;80.70;96028.53;4996898;28;19955;-74
2023/02/23 11:47:19;;;;;;;;;;;;;;;12.29;82.57;96051.19;4996977;28;19946;-74
2023/02/23 11:49:46;;;;;;;;;;;;;;;12.31;81.43;96031.50;4996763;28;20421;-74
2023/02/23 11:52:18;;;;;;;;;;;;;;;12.33;81.60;96042.56;4996697;28;19958;-74
2023/02/23 11:54:49;;;;;;;;;;;;;;;12.35;82.19;96042.34;4996529;28;19950;-74
2023/02/23 11:57:23;;;;;;;;;;;;;;;12.31;80.52;96020.97;4979165;28;19949;-75
2023/02/23 11:59:50;;;;;;;;;;;;;;;12.28;79.46;96016.19;4996914;28;19966;-74
2023/02/23 12:02:21;;;;;;;;;;;;;;;12.21;79.18;96017.41;4996301;28;19972;-74
2023/02/23 12:04:49;;;;;;;;;;;;;;;12.15;81.89;96035.69;4996577;28;19948;-74
2023/02/23 12:07:24;;;;;;;;;;;;;;;12.15;83.32;96048.06;4996179;28;19946;-74
2023/02/23 12:09:55;;;;;;;;;;;;;;;12.18;81.75;96039.72;4996073;28;19946;-74
2023/02/23 12:12:23;;;;;;;;;;;;;;;12.14;83.02;96039.38;4996378;28;19958;-74
2023/02/23 12:14:54;;;;;;;;;;;;;;;12.11;83.30;96047.72;4996376;28;19943;-74
2023/02/23 12:17:24;;;;;;;;;;;;;;;12.11;83.68;96049.56;4996361;28;19953;-73
2023/02/23 12:19:55;;;;;;;;;;;;;;;12.08;82.11;96031.66;4996044;28;20427;-74
2023/02/23 12:22:25;;;;;;;;;;;;;;;12.07;83.27;96041.34;4996004;28;19966;-74
2023/02/23 12:25:10;;;;;;;;;;;;;;;12.08;82.45;96034.28;4996028;28;19946;-74
2023/02/23 12:27:36;;;;;;;;;;;;;;;12.19;86.18;96071.00;4983366;28;19946;-74
2023/02/23 12:30:08;;;;;;;;;;;;;;;12.35;83.59;96040.50;4995811;28;19946;-74
2023/02/23 12:32:50;;;;;;;;;;;;;;;12.37;80.14;96009.50;4995981;28;19948;-74
2023/02/23 12:35:22;;;;;;;;;;;;;;;12.25;81.82;96027.19;4995930;28;19950;-74
2023/02/23 12:37:52;;;;;;;;;;;;;;;12.14;81.25;96020.19;4986829;28;19959;-74
2023/02/23 12:40:26;;;;;;;;;;;;;;;12.08;83.06;96042.16;4995629;28;19953;-74
2023/02/23 12:43:10;;;;;;;;;;;;;;;12.06;84.11;96044.22;4995818;28;19970;-74
2023/02/23 12:45:42;;;;;;;;;;;;;;;12.04;83.01;96030.53;4995990;28;19963;-74
2023/02/23 12:48:17;;;;;;;;;;;;;;;11.98;81.46;96014.66;4995477;28;19948;-75
2023/02/23 12:50:49;;;;;;;;;;;;;;;11.89;82.44;96026.59;4996133;28;19955;-74
2023/02/23 12:53:24;;;;;;;;;;;;;;;11.86;83.31;96034.13;4996106;28;20326;-74
2023/02/23 12:56:03;;;;;;;;;;;;;;;11.75;80.87;96002.41;4995367;28;19950;-74
2023/02/23 12:58:32;;;;;;;;;;;;;;;11.72;82.91;96023.13;4995465;28;19953;-74
2023/02/23 13:01:13;;;;;;;;;;;;;;;11.70;83.00;96025.97;4995248;28;19963;-74
2023/02/23 13:03:48;;;;;;;;;;;;;;;11.70;83.76;96028.59;4996015;28;19957;-74
2023/02/23 13:06:18;;;;;;;;;;;;;;;11.70;83.87;96028.59;4995208;28;19939;-74
2023/02/23 13:08:44;;;;;;;;;;;;;;;11.68;83.44;96017.53;4995227;28;19952;-74
2023/02/23 13:11:29;;;;;;;;;;;;;;;11.65;84.78;96030.31;4995495;28;19954;-74
2023/02/23 13:14:08;;;;;;;;;;;;;;;11.63;86.75;96053.38;4994829;28;19957;-73
2023/02/23 13:16:43;;;;;;;;;;;;;;;11.60;88.55;96062.53;4995564;28;20421;-77
2023/02/23 13:19:08;;;;;;;;;;;;;;;11.59;90.54;96071.47;4995093;28;19955;-76
2023/02/23 13:21:41;;;;;;;;;;;;;;;11.60;90.96;96073.03;4977438;28;19966;-76
2023/02/23 13:24:13;;;;;;;;;;;;;;;11.61;91.59;96077.25;4994875;28;19949;-75
2023/02/23 13:26:48;;;;;;;;;;;;;;;11.61;91.44;96087.75;4995301;28;19945;-74
2023/02/23 13:29:13;;;;;;;;;;;;;;;11.63;92.43;96085.69;4994884;28;19947;-75
2023/02/23 13:31:40;;;;;;;;;;;;;;;11.63;94.61;96098.03;4977344;28;19946;-75
2023/02/23 13:34:10;;;;;;;;;;;;;;;11.63;94.17;96088.31;4994783;28;19954;-75
2023/02/23 13:36:37;;;;;;;;;;;;;;;11.66;95.19;96092.34;4994715;28;19945;-75
2023/02/23 13:39:04;;;;;;;;;;;;;;;11.65;94.36;96077.59;4994605;28;19951;-75
2023/02/23 13:41:38;;;;;;;;;;;;;;;11.65;95.02;96085.47;4994850;28;20300;-75
2023/02/23 13:44:07;;;;;;;;;;;;;;;11.64;95.99;96097.03;4994740;28;19956;-75
2023/02/23 13:46:48;;;;;;;;;;;;;;;11.66;95.65;96081.84;4994516;28;19950;-75
2023/02/23 13:49:19;;;;;;;;;;;;;;;11.68;96.54;96085.03;4994722;28;19944;-75
2023/02/23 13:51:49;;;;;;;;;;;;;;;11.70;96.37;96077.72;4994767;28;19948;-75
2023/02/23 13:54:17;;;;;;;;;;;;;;;11.71;96.07;96071.41;4994403;28;19942;-75
2023/02/23 13:56:46;;;;;;;;;;;;;;;11.73;96.04;96071.97;4994534;28;19974;-75
2023/02/23 13:59:17;;;;;;;;;;;;;;;11.76;95.87;96072.31;4976939;28;19952;-75
2023/02/23 14:01:44;;;;;;;;;;;;;;;11.77;96.72;96079.16;4994306;28;19959;-75
2023/02/23 14:04:14;;;;;;;;;;;;;;;11.80;95.23;96070.03;4994274;28;19954;-75
2023/02/23 14:06:52;;;;;;;;;;;;;;;11.83;95.47;96061.66;4994507;28;19949;-76
2023/02/23 14:09:27;;;;;;;;;;;;;;;11.89;96.18;96067.84;4994296;28;20325;-76
2023/02/23 14:12:04;;;;;;;;;;;;;;;11.92;94.60;96062.09;4993110;28;19963;-75
2023/02/23 14:14:30;;;;;;;;;;;;;;;11.91;94.00;96053.44;4994141;28;20412;-75